TimeEDT,TemperatureF,Dew PointF,Humidity,Sea Level PressureIn,VisibilityMPH,Wind Direction,Wind SpeedMPH,Gust SpeedMPH,PrecipitationIn,Events,Conditions,WindDirDegrees,DateUTC
12:53 AM,79.0,72.0,79,29.93,10.0,WSW,4.6,-,N/A,,Clear,240,2012-05-31 04:53:00
1:53 AM,79.0,73.0,82,29.92,10.0,WSW,4.6,-,N/A,,Clear,240,2012-05-31 05:53:00
2:53 AM,79.0,73.9,84,29.90,10.0,West,4.6,-,N/A,,Clear,270,2012-05-31 06:53:00
3:53 AM,78.1,73.9,87,29.89,10.0,WNW,3.5,-,N/A,,Clear,290,2012-05-31 07:53:00
4:53 AM,79.0,73.9,84,29.88,10.0,Calm,Calm,-,N/A,,Partly Cloudy,0,2012-05-31 08:53:00
5:53 AM,79.0,73.0,82,29.89,10.0,West,4.6,-,N/A,,Partly Cloudy,280,2012-05-31 09:53:00
6:53 AM,79.0,73.0,82,29.90,10.0,WNW,3.5,-,0.00,Rain,Light Rain,300,2012-05-31 10:53:00
7:53 AM,79.0,73.9,84,29.93,10.0,WSW,3.5,-,0.00,Rain,Light Rain,240,2012-05-31 11:53:00
8:53 AM,78.1,75.0,90,29.95,8.0,SW,4.6,-,0.00,Rain,Light Rain,230,2012-05-31 12:53:00
9:53 AM,78.1,72.0,81,29.96,10.0,WSW,8.1,-,0.00,Rain,Light Rain,240,2012-05-31 13:53:00
10:53 AM,77.0,73.0,88,29.96,9.0,WSW,6.9,-,0.00,Rain,Light Rain,250,2012-05-31 14:53:00
11:53 AM,79.0,73.0,82,29.96,10.0,WSW,5.8,-,0.00,Rain,Light Rain,240,2012-05-31 15:53:00
12:53 PM,82.9,71.1,67,29.94,10.0,South,4.6,-,0.00,,Scattered Clouds,180,2012-05-31 16:53:00
1:53 PM,84.0,71.1,65,29.93,10.0,Variable,3.5,-,N/A,,Scattered Clouds,0,2012-05-31 17:53:00
2:53 PM,82.9,72.0,69,29.91,10.0,South,6.9,-,N/A,,Mostly Cloudy,170,2012-05-31 18:53:00
3:53 PM,82.9,72.0,69,29.91,10.0,SSE,10.4,-,N/A,,Scattered Clouds,150,2012-05-31 19:53:00
4:53 PM,82.0,72.0,71,29.91,10.0,SSE,10.4,-,N/A,,Scattered Clouds,160,2012-05-31 20:53:00
5:53 PM,81.0,72.0,74,29.91,10.0,SSE,12.7,-,N/A,,Mostly Cloudy,150,2012-05-31 21:53:00
6:53 PM,80.1,73.0,79,29.91,10.0,SSE,12.7,-,0.00,,Mostly Cloudy,150,2012-05-31 22:53:00
7:53 PM,80.1,73.0,79,29.93,10.0,South,8.1,-,0.00,Rain,Light Rain,180,2012-05-31 23:53:00
8:53 PM,79.0,73.0,82,29.95,10.0,South,3.5,-,0.00,Rain,Light Rain,170,2012-06-01 00:53:00
9:53 PM,78.1,75.0,90,29.95,10.0,SSE,3.5,-,0.00,,Scattered Clouds,160,2012-06-01 01:53:00
10:53 PM,79.0,75.0,88,29.96,10.0,South,4.6,-,N/A,,Scattered Clouds,190,2012-06-01 02:53:00
11:53 PM,79.0,75.0,88,29.96,10.0,Calm,Calm,-,0.00,,Scattered Clouds,0,2012-06-01 03:53:00